Time;durP1;ratioP1;P1;durP2;ratioP2;P2;SDS_P1;SDS_P2;PMS_P1;PMS_P2;Temp;Humidity;BMP_temperature;BMP_pressure;BME280_temperature;BME280_humidity;BME280_pressure;Samples;Min_cycle;Max_cycle;Signal;HPM_P1;HPM_P2
2021/06/11 00:00:14;;;;;;;7.53;5.78;;;22.00;61.00;;;;;;5136909;27;20039;-71
2021/06/11 00:02:41;;;;;;;8.73;4.93;;;22.00;60.80;;;;;;5135626;27;20386;-72
2021/06/11 00:05:09;;;;;;;11.05;5.20;;;21.90;59.10;;;;;;5115031;27;20883;-72
2021/06/11 00:07:36;;;;;;;7.13;5.03;;;21.90;59.30;;;;;;5136046;27;20130;-72
2021/06/11 00:10:10;;;;;;;10.95;5.03;;;21.90;58.90;;;;;;5139245;27;20442;-71
2021/06/11 00:12:38;;;;;;;9.05;5.25;;;21.90;58.50;;;;;;5146661;27;20133;-72
2021/06/11 00:15:07;;;;;;;14.10;5.05;;;21.90;59.30;;;;;;5146926;27;20053;-72
2021/06/11 00:17:34;;;;;;;7.03;4.72;;;21.90;59.30;;;;;;5142682;27;20138;-72
2021/06/11 00:20:01;;;;;;;6.55;5.28;;;21.90;60.00;;;;;;5147639;27;20042;-72
2021/06/11 00:22:28;;;;;;;8.65;5.40;;;21.90;59.50;;;;;;5146185;27;20046;-72
2021/06/11 00:24:55;;;;;;;7.97;5.43;;;21.90;59.30;;;;;;5130899;27;20039;-71
2021/06/11 00:27:22;;;;;;;8.77;5.50;;;21.90;59.50;;;;;;5145538;27;20729;-72
2021/06/11 00:29:48;;;;;;;9.43;5.88;;;21.90;60.00;;;;;;5127030;27;20746;-71
2021/06/11 00:32:15;;;;;;;9.77;5.53;;;21.90;60.50;;;;;;5145994;27;20573;-72
2021/06/11 00:34:42;;;;;;;6.50;5.53;;;21.90;60.90;;;;;;5145316;27;20087;-71
2021/06/11 00:37:09;;;;;;;9.27;5.82;;;21.80;61.70;;;;;;5148610;27;20453;-72
2021/06/11 00:39:36;;;;;;;13.10;6.43;;;21.70;61.80;;;;;;5149294;27;20043;-72
2021/06/11 00:42:04;;;;;;;6.82;5.55;;;21.80;62.10;;;;;;5147344;27;20061;-72
2021/06/11 00:44:30;;;;;;;7.05;5.65;;;21.80;61.70;;;;;;5151211;27;20099;-72
2021/06/11 00:46:57;;;;;;;12.48;6.10;;;21.80;61.80;;;;;;5148285;27;20087;-72
2021/06/11 00:49:24;;;;;;;7.97;5.90;;;21.80;61.80;;;;;;5126103;27;20046;-72
2021/06/11 00:51:52;;;;;;;10.63;5.75;;;21.70;61.90;;;;;;5131607;27;20095;-72
2021/06/11 00:54:20;;;;;;;11.02;5.65;;;21.70;61.80;;;;;;5147425;27;20043;-72
2021/06/11 00:56:47;;;;;;;7.47;5.32;;;21.70;62.20;;;;;;5126873;27;20054;-72
2021/06/11 00:59:16;;;;;;;10.40;5.30;;;21.80;61.80;;;;;;5149738;27;20585;-72
2021/06/11 01:01:43;;;;;;;15.45;6.03;;;21.70;61.60;;;;;;5147884;27;20460;-72
2021/06/11 01:04:11;;;;;;;10.32;5.57;;;21.60;62.10;;;;;;5146661;27;20050;-72
2021/06/11 01:06:40;;;;;;;7.53;6.10;;;21.50;62.80;;;;;;5132238;27;20050;-72
2021/06/11 01:09:11;;;;;;;8.97;6.90;;;21.60;63.40;;;;;;5148614;27;20050;-72
2021/06/11 01:11:41;;;;;;;10.70;7.05;;;21.40;63.60;;;;;;5126538;27;20142;-72
2021/06/11 01:14:09;;;;;;;10.18;7.28;;;21.40;64.40;;;;;;5151417;27;20081;-72
2021/06/11 01:16:36;;;;;;;9.00;6.75;;;21.40;64.60;;;;;;5130347;27;20077;-72
2021/06/11 01:19:05;;;;;;;11.48;6.93;;;21.30;65.20;;;;;;5138134;27;20043;-71
2021/06/11 01:21:36;;;;;;;12.70;7.55;;;21.30;65.80;;;;;;5132027;27;20070;-72
2021/06/11 01:24:19;;;;;;;11.25;7.57;;;21.30;66.50;;;;;;5145460;27;20433;-72
2021/06/11 01:26:56;;;;;;;11.18;8.57;;;21.20;67.10;;;;;;5147476;27;20085;-72
2021/06/11 01:29:27;;;;;;;12.10;8.98;;;21.10;69.10;;;;;;5138299;27;20146;-72
2021/06/11 01:31:57;;;;;;;11.10;9.20;;;21.20;70.00;;;;;;5131814;27;20141;-72
2021/06/11 01:34:32;;;;;;;12.00;8.65;;;21.10;69.60;;;;;;5125825;27;20119;-73
2021/06/11 01:37:17;;;;;;;13.57;9.23;;;21.00;70.40;;;;;;5147994;27;20589;-73
2021/06/11 01:39:49;;;;;;;14.48;9.70;;;21.00;70.30;;;;;;5148638;27;20435;-72
2021/06/11 01:42:17;;;;;;;21.60;9.38;;;20.90;70.70;;;;;;5145978;27;20441;-72
2021/06/11 01:44:45;;;;;;;12.82;9.43;;;20.80;70.70;;;;;;5133890;27;20054;-72
2021/06/11 01:47:14;;;;;;;11.48;9.25;;;20.90;70.80;;;;;;5133173;27;20497;-72
2021/06/11 01:49:43;;;;;;;10.38;9.07;;;20.90;70.60;;;;;;5146312;27;20099;-72
2021/06/11 01:52:12;;;;;;;14.88;10.65;;;20.80;69.30;;;;;;5148292;27;20094;-72
2021/06/11 01:54:42;;;;;;;15.25;10.65;;;21.00;67.90;;;;;;5150874;27;20046;-73
2021/06/11 01:57:09;;;;;;;15.50;11.70;;;21.00;67.00;;;;;;5146558;27;20126;-72
2021/06/11 01:59:37;;;;;;;15.23;10.52;;;20.90;66.40;;;;;;5126110;27;20319;-72
2021/06/11 02:02:05;;;;;;;13.88;10.52;;;20.90;67.00;;;;;;5131107;27;20074;-72
2021/06/11 02:04:33;;;;;;;20.30;10.45;;;20.90;66.80;;;;;;5147133;27;20102;-72
2021/06/11 02:07:07;;;;;;;13.82;10.43;;;20.80;67.30;;;;;;5148993;27;20055;-72
2021/06/11 02:09:36;;;;;;;18.88;10.23;;;20.80;68.50;;;;;;5148561;27;20039;-72
2021/06/11 02:12:04;;;;;;;14.20;10.20;;;20.60;68.50;;;;;;5125399;27;20557;-72
2021/06/11 02:14:31;;;;;;;16.88;11.10;;;20.60;69.10;;;;;;5130831;27;20046;-73
2021/06/11 02:16:59;;;;;;;15.15;10.57;;;20.70;68.00;;;;;;5144364;27;20126;-72
2021/06/11 02:19:27;;;;;;;12.85;10.10;;;20.70;68.50;;;;;;5126092;27;20194;-72
2021/06/11 02:21:55;;;;;;;13.90;10.18;;;20.70;67.40;;;;;;5119901;27;20137;-72
2021/06/11 02:24:22;;;;;;;13.13;9.98;;;20.70;66.60;;;;;;5147128;27;20141;-72
2021/06/11 02:26:50;;;;;;;12.40;9.40;;;20.70;66.70;;;;;;5131655;27;20129;-72
2021/06/11 02:29:18;;;;;;;13.40;9.35;;;20.70;67.40;;;;;;5146775;27;20080;-72
2021/06/11 02:31:45;;;;;;;12.88;9.52;;;20.50;68.10;;;;;;5128134;27;20074;-72
2021/06/11 02:34:13;;;;;;;15.38;10.18;;;20.30;69.00;;;;;;5127084;27;20396;-72
2021/06/11 02:36:40;;;;;;;13.70;9.85;;;20.40;69.80;;;;;;5146769;27;20111;-72
2021/06/11 02:39:07;;;;;;;14.45;9.65;;;20.40;68.90;;;;;;5130141;27;20125;-72
2021/06/11 02:41:40;;;;;;;16.27;10.00;;;20.40;68.90;;;;;;5130435;27;20461;-72
2021/06/11 02:44:08;;;;;;;13.88;10.20;;;20.50;68.20;;;;;;5149958;27;20043;-72
2021/06/11 02:46:47;;;;;;;13.05;10.02;;;20.40;69.10;;;;;;5146072;27;20470;-78
2021/06/11 02:49:25;;;;;;;16.25;10.35;;;20.30;69.70;;;;;;5124598;27;20066;-78
2021/06/11 02:51:54;;;;;;;14.80;9.77;;;20.10;69.90;;;;;;5148133;27;20125;-72
2021/06/11 02:54:37;;;;;;;18.02;9.75;;;20.20;70.50;;;;;;5147908;27;20142;-73
2021/06/11 02:57:13;;;;;;;13.85;10.85;;;20.30;70.00;;;;;;5146219;27;20074;-73
2021/06/11 02:59:45;;;;;;;15.02;11.32;;;20.30;70.00;;;;;;5129368;27;20058;-72
2021/06/11 03:02:17;;;;;;;17.88;12.98;;;20.30;69.80;;;;;;5148888;27;20078;-72
2021/06/11 03:04:46;;;;;;;16.23;11.07;;;20.20;70.00;;;;;;5142871;27;21239;-73
2021/06/11 03:07:25;;;;;;;18.25;12.48;;;20.20;70.10;;;;;;5146942;27;20549;-72
2021/06/11 03:09:59;;;;;;;18.83;11.65;;;20.20;70.20;;;;;;5150352;27;20047;-72
2021/06/11 03:12:28;;;;;;;15.88;10.43;;;20.20;70.60;;;;;;5129705;27;20074;-72
2021/06/11 03:14:55;;;;;;;15.37;10.20;;;20.20;69.30;;;;;;5127168;27;20043;-72
2021/06/11 03:17:28;;;;;;;14.73;9.65;;;20.30;69.20;;;;;;5150896;27;20115;-72
2021/06/11 03:19:59;;;;;;;13.48;10.30;;;20.30;68.60;;;;;;5141608;27;20065;-72
2021/06/11 03:22:35;;;;;;;15.95;11.18;;;20.20;69.00;;;;;;5139852;27;20086;-72
2021/06/11 03:25:07;;;;;;;16.13;10.63;;;20.30;68.10;;;;;;5148287;27;20530;-73
2021/06/11 03:27:46;;;;;;;14.50;10.70;;;20.30;68.50;;;;;;5148649;27;20450;-72
2021/06/11 03:30:15;;;;;;;17.65;11.13;;;20.30;69.40;;;;;;5146093;27;20133;-72
2021/06/11 03:33:00;;;;;;;18.85;11.00;;;20.20;69.40;;;;;;5128392;27;20047;-72
2021/06/11 03:35:42;;;;;;;15.40;10.82;;;20.20;70.50;;;;;;5131056;27;20039;-73
2021/06/11 03:38:14;;;;;;;16.38;11.55;;;20.10;71.40;;;;;;5143926;27;20378;-72
2021/06/11 03:40:42;;;;;;;15.35;10.50;;;20.00;72.30;;;;;;5147435;27;20093;-72
2021/06/11 03:43:11;;;;;;;18.63;11.07;;;20.10;72.30;;;;;;5151095;27;20042;-73
2021/06/11 03:45:41;;;;;;;18.77;11.43;;;20.00;72.50;;;;;;5145099;27;20050;-72
2021/06/11 03:48:11;;;;;;;;;;;20.00;72.60;;;;;;5149692;27;20051;-72
2021/06/11 03:50:41;;;;;;;17.98;12.25;;;20.00;72.50;;;;;;5148818;27;19919;-73
2021/06/11 03:53:09;;;;;;;21.83;13.43;;;20.00;72.50;;;;;;5145804;27;20578;-72
2021/06/11 03:55:48;;;;;;;18.75;12.63;;;20.10;72.30;;;;;;5129459;27;20130;-73
2021/06/11 03:58:27;;;;;;;21.30;12.50;;;19.90;72.80;;;;;;5143855;27;20161;-73
2021/06/11 04:00:57;;;;;;;21.27;12.30;;;19.90;73.50;;;;;;5126443;27;20038;-72
2021/06/11 04:03:24;;;;;;;27.02;13.60;;;20.00;73.60;;;;;;5148171;27;20042;-73
2021/06/11 04:06:03;;;;;;;23.00;12.73;;;20.00;72.60;;;;;;5149919;27;20138;-72
2021/06/11 04:08:33;;;;;;;20.08;14.10;;;20.00;73.60;;;;;;5145993;27;20047;-73
2021/06/11 04:11:01;;;;;;;26.77;13.52;;;20.00;72.30;;;;;;5143825;27;20043;-72
2021/06/11 04:13:39;;;;;;;17.98;13.25;;;20.00;72.20;;;;;;5132595;27;20079;-72
2021/06/11 04:16:17;;;;;;;17.52;12.98;;;20.10;72.10;;;;;;5153220;27;20183;-72
2021/06/11 04:18:46;;;;;;;19.70;13.38;;;20.10;72.10;;;;;;5128509;27;20392;-72
2021/06/11 04:21:22;;;;;;;16.13;13.35;;;20.10;71.00;;;;;;5133135;27;20154;-72
2021/06/11 04:23:52;;;;;;;15.63;12.48;;;20.20;70.20;;;;;;5153632;27;20444;-73
2021/06/11 04:26:21;;;;;;;;;;;20.20;69.40;;;;;;5130598;27;20109;-72
2021/06/11 04:28:50;;;;;;;16.98;12.48;;;20.20;69.50;;;;;;5148274;27;19925;-71
2021/06/11 04:31:17;;;;;;;17.67;11.77;;;20.10;70.80;;;;;;5149363;27;20189;-73
2021/06/11 04:33:44;;;;;;;18.13;11.20;;;20.20;69.10;;;;;;5147470;27;20054;-71
2021/06/11 04:36:11;;;;;;;14.60;11.85;;;20.20;67.90;;;;;;5151797;27;20590;-78
2021/06/11 04:38:55;;;;;;;23.52;11.88;;;20.30;68.80;;;;;;5132956;27;20657;-79
2021/06/11 04:41:26;;;;;;;17.35;11.35;;;20.20;69.30;;;;;;5149321;27;20070;-78
2021/06/11 04:43:56;;;;;;;13.93;10.90;;;20.20;68.90;;;;;;5150916;27;20319;-78
2021/06/11 04:46:23;;;;;;;18.48;11.60;;;20.30;69.30;;;;;;5153160;27;20465;-79
2021/06/11 04:48:51;;;;;;;19.85;12.18;;;20.60;68.80;;;;;;5149823;27;20061;-73
2021/06/11 04:51:17;;;;;;;20.23;12.75;;;20.70;68.80;;;;;;5120741;27;20074;-70
2021/06/11 04:53:44;;;;;;;19.50;12.38;;;21.00;67.80;;;;;;5134994;27;20042;-72
2021/06/11 04:56:12;;;;;;;15.98;11.75;;;21.10;67.00;;;;;;5146115;27;20544;-72
2021/06/11 04:58:41;;;;;;;16.67;11.85;;;21.40;66.10;;;;;;5151423;27;20569;-72
2021/06/11 05:01:08;;;;;;;17.35;12.50;;;21.60;65.50;;;;;;5151726;27;20131;-72
2021/06/11 05:03:39;;;;;;;21.55;12.98;;;21.70;64.60;;;;;;5129299;27;20172;-71
2021/06/11 05:06:06;;;;;;;22.00;12.82;;;21.70;64.70;;;;;;5128711;27;20078;-72
2021/06/11 05:08:33;;;;;;;18.63;12.82;;;21.90;64.30;;;;;;5132673;27;20100;-71
2021/06/11 05:11:01;;;;;;;16.75;12.80;;;22.20;63.50;;;;;;5129822;27;20166;-71
2021/06/11 05:13:29;;;;;;;21.30;13.90;;;22.70;62.70;;;;;;5147543;27;20078;-71
2021/06/11 05:15:56;;;;;;;20.77;14.13;;;22.80;62.70;;;;;;5149704;27;20133;-72
2021/06/11 05:18:29;;;;;;;23.13;12.65;;;23.20;61.70;;;;;;5150668;27;20046;-72
2021/06/11 05:20:58;;;;;;;21.08;12.73;;;23.70;61.20;;;;;;5152073;27;20406;-72
2021/06/11 05:23:25;;;;;;;19.17;12.27;;;24.10;60.10;;;;;;5150250;27;20463;-79
2021/06/11 05:25:53;;;;;;;19.17;12.10;;;24.60;59.30;;;;;;5149310;27;20556;-79
2021/06/11 05:28:21;;;;;;;19.58;12.75;;;24.70;59.20;;;;;;5134908;27;20406;-78
2021/06/11 05:30:49;;;;;;;18.10;14.15;;;25.00;59.00;;;;;;5145013;27;20042;-77
2021/06/11 05:33:16;;;;;;;23.30;13.57;;;25.60;57.60;;;;;;5143990;27;20465;-79
2021/06/11 05:35:44;;;;;;;19.23;12.65;;;26.20;56.00;;;;;;5133941;27;20050;-72
2021/06/11 05:38:12;;;;;;;18.90;13.85;;;26.00;55.60;;;;;;5118254;27;20501;-72
2021/06/11 05:40:39;;;;;;;22.17;13.02;;;24.50;57.10;;;;;;5131054;27;20549;-72
2021/06/11 05:43:06;;;;;;;20.23;12.05;;;23.80;58.60;;;;;;5121947;27;20427;-72
2021/06/11 05:45:34;;;;;;;18.05;11.75;;;23.30;59.90;;;;;;5127074;27;20406;-73
2021/06/11 05:48:02;;;;;;;17.27;12.35;;;23.10;60.70;;;;;;5126369;27;20611;-72
2021/06/11 05:50:31;;;;;;;18.85;11.80;;;22.60;62.00;;;;;;5148652;27;20512;-72
2021/06/11 05:52:59;;;;;;;14.85;11.20;;;22.10;63.20;;;;;;5147807;27;20104;-72
2021/06/11 05:55:27;;;;;;;15.45;11.48;;;21.70;64.10;;;;;;5129091;27;20051;-72
2021/06/11 05:57:54;;;;;;;16.83;11.60;;;21.50;64.60;;;;;;5150668;27;20065;-78
2021/06/11 06:00:23;;;;;;;16.67;11.25;;;21.50;65.70;;;;;;5147204;27;20053;-79
2021/06/11 06:02:50;;;;;;;23.65;11.70;;;21.40;65.90;;;;;;5131399;27;20042;-77
2021/06/11 06:05:17;;;;;;;17.77;11.73;;;21.60;66.40;;;;;;5149368;27;20661;-79
2021/06/11 06:07:44;;;;;;;19.00;10.70;;;21.70;64.80;;;;;;5130883;27;20046;-79
2021/06/11 06:10:11;;;;;;;16.42;10.65;;;21.60;65.10;;;;;;5131319;27;20138;-79
2021/06/11 06:12:39;;;;;;;15.95;10.57;;;21.70;65.10;;;;;;5152002;27;20050;-79
2021/06/11 06:15:06;;;;;;;18.20;10.70;;;21.60;64.70;;;;;;5148211;27;20120;-79
2021/06/11 06:17:36;;;;;;;13.60;10.27;;;21.70;64.70;;;;;;5142546;27;20469;-78
2021/06/11 06:20:04;;;;;;;;;;;21.70;64.40;;;;;;5150412;27;20122;-79
2021/06/11 06:22:37;;;;;;;14.32;10.07;;;22.40;63.70;;;;;;5126579;27;19919;-79
2021/06/11 06:25:06;;;;;;;14.00;11.10;;;22.40;62.90;;;;;;5147161;27;20111;-79
2021/06/11 06:27:34;;;;;;;20.17;11.93;;;22.10;63.60;;;;;;5129985;27;20454;-79
2021/06/11 06:30:07;;;;;;;16.92;12.52;;;21.90;63.90;;;;;;5148279;27;20149;-78
2021/06/11 06:32:34;;;;;;;21.60;13.05;;;22.70;63.60;;;;;;5145927;27;20066;-78
2021/06/11 06:35:02;;;;;;;19.05;14.13;;;23.00;61.20;;;;;;5123462;27;20096;-79
2021/06/11 06:37:29;;;;;;;21.52;13.20;;;22.30;62.20;;;;;;5139157;27;20047;-78
2021/06/11 06:39:56;;;;;;;23.13;14.20;;;22.20;63.30;;;;;;5128572;27;20102;-78
2021/06/11 06:42:23;;;;;;;17.90;13.55;;;23.20;61.70;;;;;;5151291;27;20039;-77
2021/06/11 06:44:50;;;;;;;21.98;14.70;;;23.40;59.80;;;;;;5129497;27;20062;-79
2021/06/11 06:47:18;;;;;;;22.95;12.98;;;24.80;58.30;;;;;;5124279;27;20082;-78
2021/06/11 06:49:45;;;;;;;22.95;13.82;;;25.10;57.70;;;;;;5129690;27;20119;-78
2021/06/11 06:52:14;;;;;;;21.40;14.32;;;26.30;54.30;;;;;;5146217;27;20114;-79
2021/06/11 06:54:43;;;;;;;22.38;14.05;;;24.80;56.00;;;;;;5148289;27;20051;-79
2021/06/11 06:57:13;;;;;;;18.52;13.30;;;23.40;58.90;;;;;;5149719;27;20042;-78
2021/06/11 06:59:39;;;;;;;;;;;22.80;61.20;;;;;;5127702;27;20185;-78
2021/06/11 07:02:07;;;;;;;30.98;15.98;;;22.50;62.70;;;;;;5125607;27;19958;-78
2021/06/11 07:04:34;;;;;;;26.88;16.55;;;22.30;63.60;;;;;;5132340;27;20062;-76
2021/06/11 07:07:02;;;;;;;30.80;18.05;;;22.20;63.70;;;;;;5147863;27;20315;-77
2021/06/11 07:09:29;;;;;;;33.70;19.25;;;22.10;64.30;;;;;;5148897;27;20485;-78
2021/06/11 07:11:56;;;;;;;37.97;20.13;;;22.10;64.70;;;;;;5150904;27;20091;-79
2021/06/11 07:14:23;;;;;;;28.63;20.83;;;22.20;64.50;;;;;;5127296;27;20043;-78
2021/06/11 07:16:50;;;;;;;27.55;18.48;;;22.30;64.40;;;;;;5125859;27;20109;-75
2021/06/11 07:19:18;;;;;;;29.30;18.95;;;23.40;63.20;;;;;;5130167;27;20127;-77
2021/06/11 07:21:45;;;;;;;28.63;16.95;;;23.90;60.20;;;;;;5126424;27;20139;-79
2021/06/11 07:24:12;;;;;;;25.42;16.55;;;25.40;58.60;;;;;;5128601;27;20061;-77
2021/06/11 07:26:39;;;;;;;28.35;17.20;;;24.80;57.50;;;;;;5148432;27;20680;-71
2021/06/11 07:29:06;;;;;;;25.02;17.65;;;23.80;59.80;;;;;;5144928;27;20154;-71
2021/06/11 07:31:34;;;;;;;29.40;17.63;;;22.90;61.70;;;;;;5128948;27;20474;-72
2021/06/11 07:34:01;;;;;;;26.70;16.73;;;22.60;63.70;;;;;;5130325;27;20725;-79
2021/06/11 07:36:29;;;;;;;23.98;15.50;;;22.80;63.70;;;;;;5144032;27;20550;-79
2021/06/11 07:38:56;;;;;;;27.88;19.20;;;23.00;63.40;;;;;;5148556;27;20486;-79
2021/06/11 07:41:23;;;;;;;41.15;20.83;;;22.90;62.80;;;;;;5123677;27;20399;-79
2021/06/11 07:43:52;;;;;;;26.08;18.08;;;22.80;63.30;;;;;;5117926;27;20047;-78
2021/06/11 07:46:19;;;;;;;25.58;17.83;;;22.90;64.10;;;;;;5130468;27;20050;-78
2021/06/11 07:48:47;;;;;;;29.48;18.48;;;23.00;63.30;;;;;;5132679;27;20062;-78
2021/06/11 07:51:14;;;;;;;30.95;18.17;;;23.10;62.80;;;;;;5135745;27;20073;-76
2021/06/11 07:53:41;;;;;;;28.00;19.15;;;23.10;63.10;;;;;;5120856;27;20133;-77
2021/06/11 07:56:10;;;;;;;34.00;22.23;;;23.10;62.70;;;;;;5135624;27;20133;-78
2021/06/11 07:58:37;;;;;;;32.95;21.13;;;22.90;63.30;;;;;;5133488;27;20719;-78
2021/06/11 08:01:04;;;;;;;35.95;22.17;;;22.80;63.90;;;;;;5115057;27;20060;-75
2021/06/11 08:03:31;;;;;;;38.78;23.02;;;22.90;63.60;;;;;;5135537;27;20780;-79
2021/06/11 08:05:58;;;;;;;34.50;22.08;;;23.10;63.70;;;;;;5116401;27;20453;-76
2021/06/11 08:08:25;;;;;;;39.67;23.23;;;23.10;62.90;;;;;;5132077;27;20047;-76
2021/06/11 08:10:53;;;;;;;34.72;22.33;;;23.10;63.00;;;;;;5135321;27;20111;-78
2021/06/11 08:13:20;;;;;;;30.50;20.23;;;23.20;63.40;;;;;;5133604;27;20095;-78
2021/06/11 08:15:47;;;;;;;33.47;22.50;;;23.40;61.40;;;;;;5135288;27;20051;-77
2021/06/11 08:18:14;;;;;;;30.23;20.65;;;23.50;61.10;;;;;;5117318;27;20074;-76
2021/06/11 08:20:41;;;;;;;31.45;19.25;;;23.60;61.40;;;;;;5132742;27;20058;-76
2021/06/11 08:23:08;;;;;;;26.15;17.50;;;23.60;60.40;;;;;;5134899;27;20051;-78
2021/06/11 08:25:36;;;;;;;25.42;15.93;;;23.80;60.50;;;;;;5114668;27;20054;-75
2021/06/11 08:28:03;;;;;;;27.83;16.35;;;23.70;60.40;;;;;;5114849;27;20166;-75
2021/06/11 08:30:30;;;;;;;23.40;15.15;;;23.70;60.00;;;;;;5133809;27;20051;-77
2021/06/11 08:32:59;;;;;;;26.15;16.67;;;23.70;60.30;;;;;;5133848;27;20454;-77
2021/06/11 08:35:27;;;;;;;23.98;16.98;;;23.80;59.30;;;;;;5133538;27;20083;-77
2021/06/11 08:37:55;;;;;;;24.92;15.25;;;23.80;59.10;;;;;;5134067;27;20153;-78
2021/06/11 08:40:22;;;;;;;28.98;14.45;;;23.90;59.10;;;;;;5134483;27;20584;-73
2021/06/11 08:42:49;;;;;;;24.05;15.65;;;23.90;59.90;;;;;;5134505;27;20058;-74
2021/06/11 08:45:17;;;;;;;25.77;16.90;;;24.00;59.20;;;;;;5136247;27;20126;-75
2021/06/11 08:47:50;;;;;;;28.10;17.00;;;24.20;58.40;;;;;;5115934;27;20131;-75
2021/06/11 08:50:23;;;;;;;23.58;16.30;;;24.10;58.80;;;;;;5113228;27;20115;-75
2021/06/11 08:52:50;;;;;;;28.13;14.43;;;24.10;59.30;;;;;;5114718;27;20119;-74
2021/06/11 08:55:18;;;;;;;29.50;18.60;;;24.10;59.30;;;;;;5118365;27;20690;-74
2021/06/11 08:57:45;;;;;;;27.05;18.05;;;24.30;58.30;;;;;;5114236;27;20551;-74
2021/06/11 09:00:13;;;;;;;30.63;17.45;;;24.40;58.10;;;;;;5131801;27;20850;-73
2021/06/11 09:03:06;;;;;;;27.92;17.25;;;24.40;58.60;;;;;;5119240;27;20111;-73
2021/06/11 09:05:35;;;;;;;25.65;17.00;;;24.40;58.30;;;;;;5113064;27;20145;-73
2021/06/11 09:08:14;;;;;;;24.73;16.08;;;24.40;58.70;;;;;;5131644;27;20078;-74
2021/06/11 09:10:43;;;;;;;22.75;14.30;;;24.40;58.70;;;;;;5132932;27;20150;-75
2021/06/11 09:13:11;;;;;;;20.55;13.82;;;24.60;58.70;;;;;;5133271;27;20058;-74
2021/06/11 09:15:37;;;;;;;23.67;14.63;;;24.70;58.60;;;;;;5117827;27;20393;-76
2021/06/11 09:18:19;;;;;;;27.30;14.80;;;24.70;58.10;;;;;;5109459;27;20425;-75
2021/06/11 09:20:46;;;;;;;20.23;14.65;;;24.70;58.20;;;;;;5133767;27;20150;-75
2021/06/11 09:23:13;;;;;;;27.20;16.35;;;24.70;58.00;;;;;;5132729;27;20050;-75
2021/06/11 09:25:43;;;;;;;25.13;15.98;;;24.60;56.60;;;;;;5130421;27;20149;-75
2021/06/11 09:28:21;;;;;;;22.67;15.10;;;24.50;56.60;;;;;;5132158;27;20698;-75
2021/06/11 09:30:49;;;;;;;22.52;13.50;;;24.70;57.80;;;;;;5130928;27;21104;-74
2021/06/11 09:33:19;;;;;;;23.00;13.75;;;24.80;58.40;;;;;;5132639;27;20122;-75
2021/06/11 09:35:50;;;;;;;22.27;15.35;;;24.90;57.90;;;;;;5117401;27;20055;-75
2021/06/11 09:38:28;;;;;;;20.83;13.75;;;24.90;57.10;;;;;;5131408;27;20427;-75
2021/06/11 09:41:02;;;;;;;25.33;14.45;;;24.90;57.70;;;;;;5131178;27;20468;-74
2021/06/11 09:43:31;;;;;;;22.98;15.63;;;24.90;57.10;;;;;;5134600;27;20043;-75
2021/06/11 09:46:13;;;;;;;24.55;14.80;;;25.00;56.30;;;;;;5131993;27;20071;-75
2021/06/11 09:48:45;;;;;;;18.58;13.35;;;25.10;56.20;;;;;;5131560;27;20052;-74
2021/06/11 09:51:30;;;;;;;19.98;12.85;;;25.10;57.00;;;;;;5131763;27;20679;-74
2021/06/11 09:53:59;;;;;;;17.90;12.20;;;25.10;55.90;;;;;;5132504;27;20112;-75
2021/06/11 09:56:27;;;;;;;20.63;14.20;;;25.10;55.90;;;;;;5114866;27;20062;-74
2021/06/11 09:59:00;;;;;;;19.42;13.00;;;25.10;55.50;;;;;;5130506;27;20459;-74
2021/06/11 10:01:28;;;;;;;17.05;12.77;;;25.20;55.80;;;;;;5129912;27;20071;-74
2021/06/11 10:03:57;;;;;;;17.98;12.68;;;25.30;55.60;;;;;;5131281;27;20047;-74
2021/06/11 10:06:24;;;;;;;20.33;15.50;;;25.30;54.40;;;;;;5131760;27;20225;-74
2021/06/11 10:08:51;;;;;;;20.58;11.93;;;25.40;54.80;;;;;;5116880;27;20137;-75
2021/06/11 10:11:24;;;;;;;16.17;10.55;;;25.30;54.40;;;;;;5130644;27;20138;-74
2021/06/11 10:13:54;;;;;;;15.65;10.60;;;25.30;54.60;;;;;;5132991;27;20551;-72
2021/06/11 10:16:21;;;;;;;18.77;12.00;;;25.40;55.50;;;;;;5129995;27;20050;-75
2021/06/11 10:18:49;;;;;;;16.65;10.68;;;25.60;54.50;;;;;;5132675;27;20461;-74
2021/06/11 10:21:17;;;;;;;12.82;9.98;;;25.60;54.90;;;;;;5130741;27;20043;-74
2021/06/11 10:23:44;;;;;;;17.15;10.35;;;25.80;54.50;;;;;;5130051;27;20047;-75
2021/06/11 10:26:12;;;;;;;16.80;11.18;;;25.80;54.80;;;;;;5130866;27;20165;-76
2021/06/11 10:28:45;;;;;;;16.80;11.18;;;25.80;53.80;;;;;;5112697;27;20142;-75
2021/06/11 10:31:15;;;;;;;17.13;10.73;;;25.80;53.90;;;;;;5129423;27;20115;-75
2021/06/11 10:33:43;;;;;;;17.25;9.85;;;25.80;54.10;;;;;;5119780;27;20058;-74
2021/06/11 10:36:26;;;;;;;14.40;11.07;;;25.90;54.20;;;;;;5113523;27;20424;-76
2021/06/11 10:38:55;;;;;;;14.20;11.07;;;25.90;54.30;;;;;;5132256;27;20130;-75
2021/06/11 10:41:25;;;;;;;15.50;10.23;;;25.80;54.80;;;;;;5130079;27;20129;-74
2021/06/11 10:43:52;;;;;;;15.05;10.57;;;25.80;54.70;;;;;;5116792;27;20139;-74
2021/06/11 10:46:30;;;;;;;14.57;10.07;;;25.90;54.00;;;;;;5133172;27;20128;-74
2021/06/11 10:49:07;;;;;;;16.27;11.13;;;26.00;54.10;;;;;;5135137;27;20095;-74
2021/06/11 10:51:47;;;;;;;20.65;13.18;;;26.10;53.70;;;;;;5136721;27;20391;-75
2021/06/11 10:54:20;;;;;;;18.48;11.55;;;26.30;53.00;;;;;;5116702;27;20079;-75
2021/06/11 10:57:14;;;;;;;16.83;10.77;;;26.20;53.10;;;;;;5116644;27;20050;-76
2021/06/11 10:59:49;;;;;;;21.13;11.35;;;26.30;52.60;;;;;;5138088;27;20059;-76
2021/06/11 11:02:17;;;;;;;17.77;11.02;;;26.40;51.90;;;;;;5137180;27;20051;-76
2021/06/11 11:04:48;;;;;;;15.43;10.18;;;26.50;52.00;;;;;;5135712;27;20099;-76
2021/06/11 11:07:24;;;;;;;16.88;9.60;;;26.80;52.70;;;;;;5117437;27;20478;-73
2021/06/11 11:09:52;;;;;;;19.85;11.68;;;26.80;51.60;;;;;;5114875;27;20206;-74
2021/06/11 11:12:20;;;;;;;17.45;11.20;;;26.80;50.30;;;;;;5136771;27;20142;-75
2021/06/11 11:14:47;;;;;;;13.70;10.70;;;26.50;50.90;;;;;;5136595;27;20154;-75
2021/06/11 11:17:14;;;;;;;14.23;10.55;;;26.40;50.20;;;;;;5137982;27;20161;-75
2021/06/11 11:19:47;;;;;;;13.20;7.55;;;26.50;50.00;;;;;;5112958;27;20050;-75
2021/06/11 11:22:30;;;;;;;12.95;7.53;;;26.60;50.00;;;;;;5116300;27;20053;-75
2021/06/11 11:24:59;;;;;;;9.43;6.43;;;26.60;49.70;;;;;;5133723;27;20043;-75
2021/06/11 11:27:27;;;;;;;8.63;6.65;;;26.60;49.30;;;;;;5135677;27;20158;-76
2021/06/11 11:29:54;;;;;;;10.50;7.72;;;26.50;51.00;;;;;;5134556;27;20138;-75
2021/06/11 11:32:21;;;;;;;12.30;6.25;;;26.60;49.40;;;;;;5121145;27;20137;-76
2021/06/11 11:34:48;;;;;;;9.48;5.43;;;26.60;49.50;;;;;;5134888;27;20078;-74
2021/06/11 11:37:15;;;;;;;12.73;3.25;;;26.60;51.30;;;;;;5136535;27;20493;-74
2021/06/11 11:39:42;;;;;;;6.97;2.90;;;26.80;47.50;;;;;;5115644;27;20047;-74
2021/06/11 11:42:12;;;;;;;10.13;3.40;;;26.90;46.40;;;;;;5134823;27;20398;-75
2021/06/11 11:44:40;;;;;;;4.70;3.55;;;26.90;48.00;;;;;;5134007;27;20051;-75
2021/06/11 11:47:08;;;;;;;4.38;2.30;;;26.90;47.20;;;;;;5135153;27;20082;-74
2021/06/11 11:49:36;;;;;;;5.47;3.08;;;27.00;45.60;;;;;;5131376;27;20458;-74
2021/06/11 11:52:23;;;;;;;8.77;3.45;;;27.20;45.30;;;;;;5137392;27;20116;-75
2021/06/11 11:54:49;;;;;;;3.85;3.10;;;27.10;46.40;;;;;;5134363;27;20473;-75
2021/06/11 11:57:17;;;;;;;5.95;2.90;;;27.20;45.60;;;;;;5135498;27;20135;-76
2021/06/11 11:59:43;;;;;;;5.93;3.67;;;27.20;46.50;;;;;;5116025;27;20494;-76
2021/06/11 12:02:10;;;;;;;5.90;3.00;;;27.10;49.30;;;;;;5135572;27;20104;-74
2021/06/11 12:04:37;;;;;;;6.65;3.22;;;27.20;47.10;;;;;;5134044;27;20415;-75
2021/06/11 12:07:04;;;;;;;5.18;2.95;;;27.50;47.80;;;;;;5115917;27;20051;-76
2021/06/11 12:09:32;;;;;;;3.72;2.72;;;27.50;47.50;;;;;;5116378;27;20062;-74
2021/06/11 12:11:59;;;;;;;4.85;3.35;;;27.60;47.40;;;;;;5135915;27;20056;-74
2021/06/11 12:14:26;;;;;;;4.53;2.70;;;28.20;44.80;;;;;;5137121;27;20141;-74
2021/06/11 12:16:54;;;;;;;4.22;2.83;;;28.60;44.00;;;;;;5137209;27;20058;-74
2021/06/11 12:19:22;;;;;;;5.57;2.50;;;29.70;43.60;;;;;;5115243;27;20055;-75
2021/06/11 12:21:49;;;;;;;5.68;2.40;;;31.80;40.30;;;;;;5117182;27;20150;-75
2021/06/11 12:24:16;;;;;;;3.70;2.40;;;35.60;35.40;;;;;;5117184;27;20112;-75
2021/06/11 12:26:45;;;;;;;2.33;1.98;;;40.00;29.40;;;;;;5133333;27;20046;-74
2021/06/11 12:29:17;;;;;;;4.35;2.20;;;39.80;27.50;;;;;;5135247;27;20555;-75
2021/06/11 12:31:44;;;;;;;6.03;2.20;;;40.60;27.60;;;;;;5114467;27;20050;-75
2021/06/11 12:34:11;;;;;;;2.13;1.92;;;42.20;26.70;;;;;;5117154;27;20126;-75
2021/06/11 12:36:38;;;;;;;2.35;2.03;;;43.40;25.20;;;;;;5138427;27;20138;-75
2021/06/11 12:39:05;;;;;;;2.08;1.88;;;42.10;25.80;;;;;;5138600;27;20363;-75
2021/06/11 12:41:37;;;;;;;3.45;2.10;;;41.40;25.80;;;;;;5139784;27;20554;-75
2021/06/11 12:44:16;;;;;;;2.55;2.13;;;42.30;26.10;;;;;;5120269;27;21979;-75